createdAt,value
2018-12-17T00:00:37.847Z,37.93
2018-12-17T00:03:05.459Z,38.53
2018-12-17T00:05:32.990Z,48.30
2018-12-17T00:08:00.498Z,43.90
2018-12-17T00:10:28.022Z,38.23
2018-12-17T00:12:55.525Z,42.03
2018-12-17T00:15:23.102Z,38.53
2018-12-17T00:17:50.610Z,38.33
2018-12-17T00:20:18.139Z,36.70
2018-12-17T00:22:45.641Z,37.60
2018-12-17T00:25:13.160Z,37.87
2018-12-17T00:27:40.661Z,38.83
2018-12-17T00:30:08.398Z,40.57
2018-12-17T00:32:35.901Z,37.90
2018-12-17T00:35:04.509Z,34.27
2018-12-17T00:37:32.032Z,35.23
2018-12-17T00:39:59.809Z,39.67
2018-12-17T00:42:27.337Z,40.00
2018-12-17T00:44:54.846Z,37.07
2018-12-17T00:47:22.360Z,35.90
2018-12-17T00:49:49.863Z,39.83
2018-12-17T00:52:17.381Z,36.53
2018-12-17T00:54:44.892Z,35.67
2018-12-17T00:57:12.419Z,37.40
2018-12-17T00:59:39.916Z,37.00
2018-12-17T01:02:07.488Z,41.23
2018-12-17T01:04:35.436Z,39.20
2018-12-17T01:07:03.008Z,37.40
2018-12-17T01:09:30.508Z,39.17
2018-12-17T01:11:58.029Z,36.40
2018-12-17T01:14:25.590Z,36.63
2018-12-17T01:16:53.261Z,41.63
2018-12-17T01:19:20.767Z,36.67
2018-12-17T01:21:48.340Z,35.40
2018-12-17T01:24:15.841Z,37.53
2018-12-17T01:26:43.369Z,37.90
2018-12-17T01:29:10.865Z,34.40
2018-12-17T01:31:38.385Z,32.13
2018-12-17T01:34:05.894Z,36.10
2018-12-17T01:36:33.422Z,36.07
2018-12-17T01:39:00.929Z,36.00
2018-12-17T01:41:28.454Z,36.93
2018-12-17T01:43:55.950Z,34.07
2018-12-17T01:46:23.468Z,31.83
2018-12-17T01:48:50.973Z,34.97
2018-12-17T01:51:18.492Z,31.90
2018-12-17T01:53:46.072Z,35.63
2018-12-17T01:56:13.618Z,33.20
2018-12-17T01:58:41.241Z,33.77
2018-12-17T02:01:08.741Z,32.67
2018-12-17T02:03:36.266Z,33.57
2018-12-17T02:06:03.821Z,33.90
2018-12-17T02:08:31.453Z,34.03
2018-12-17T02:10:59.120Z,33.40
2018-12-17T02:13:26.642Z,33.60
2018-12-17T02:15:58.780Z,34.73
2018-12-17T02:18:26.340Z,33.70
2018-12-17T02:20:53.847Z,34.13
2018-12-17T02:23:21.380Z,32.90
2018-12-17T02:25:48.904Z,31.10
2018-12-17T02:28:16.474Z,31.70
2018-12-17T02:30:44.025Z,37.10
2018-12-17T02:33:11.547Z,31.17
2018-12-17T02:35:39.052Z,36.00
2018-12-17T02:38:06.592Z,35.43
2018-12-17T02:40:34.101Z,37.37
2018-12-17T02:43:01.674Z,37.60
2018-12-17T02:45:29.177Z,34.33
2018-12-17T02:47:56.743Z,34.93
2018-12-17T02:50:24.255Z,35.70
2018-12-17T02:52:51.776Z,33.97
2018-12-17T02:55:19.281Z,34.80
2018-12-17T02:57:46.805Z,39.47
2018-12-17T03:00:14.361Z,32.80
2018-12-17T03:02:41.933Z,31.77
2018-12-17T03:05:09.533Z,29.77
2018-12-17T03:07:37.053Z,30.33
2018-12-17T03:10:05.772Z,32.17
2018-12-17T03:12:33.302Z,36.00
2018-12-17T03:15:00.855Z,38.97
2018-12-17T03:17:28.380Z,32.67
2018-12-17T03:19:55.914Z,33.33
2018-12-17T03:22:23.485Z,30.97
2018-12-17T03:24:50.985Z,30.03
2018-12-17T03:27:18.535Z,35.83
2018-12-17T03:29:46.040Z,33.93
2018-12-17T03:32:13.542Z,37.13
2018-12-17T03:34:41.074Z,34.87
2018-12-17T03:37:08.668Z,38.07
2018-12-17T03:39:36.199Z,31.00
2018-12-17T03:42:03.767Z,33.83
2018-12-17T03:44:31.302Z,37.23
2018-12-17T03:46:58.810Z,35.83
2018-12-17T03:49:26.333Z,33.77
2018-12-17T03:51:53.838Z,33.03
2018-12-17T03:54:21.367Z,34.53
2018-12-17T03:56:48.865Z,37.30
2018-12-17T03:59:16.397Z,34.80
2018-12-17T04:01:43.902Z,38.27
2018-12-17T04:04:11.446Z,33.93
2018-12-17T04:06:38.951Z,33.87
2018-12-17T04:09:06.573Z,33.73
2018-12-17T04:11:34.085Z,33.83
2018-12-17T04:14:01.614Z,34.10
2018-12-17T04:16:29.124Z,36.07
2018-12-17T04:18:56.696Z,32.27
2018-12-17T04:21:24.201Z,32.83
2018-12-17T04:23:51.721Z,31.23
2018-12-17T04:26:19.235Z,34.20
2018-12-17T04:28:46.761Z,31.53
2018-12-17T04:31:14.266Z,37.87
2018-12-17T04:33:41.794Z,36.03
2018-12-17T04:36:09.300Z,36.93
2018-12-17T04:38:36.825Z,34.40
2018-12-17T04:41:04.336Z,33.93
2018-12-17T04:43:31.868Z,30.97
2018-12-17T04:45:59.374Z,33.23
2018-12-17T04:48:26.979Z,32.53
2018-12-17T04:50:54.498Z,33.53
2018-12-17T04:53:22.043Z,32.40
2018-12-17T04:55:49.548Z,33.20
2018-12-17T04:58:17.063Z,33.87
2018-12-17T05:00:44.580Z,31.07
2018-12-17T05:03:12.091Z,30.20
2018-12-17T05:05:39.623Z,32.50
2018-12-17T05:08:07.133Z,34.27
2018-12-17T05:10:34.657Z,28.17
2018-12-17T05:13:02.158Z,31.37
2018-12-17T05:15:29.726Z,30.60
2018-12-17T05:17:57.350Z,28.97
2018-12-17T05:20:24.873Z,30.53
2018-12-17T05:22:52.384Z,28.83
2018-12-17T05:25:19.910Z,26.30
2018-12-17T05:27:47.411Z,28.97
2018-12-17T05:30:15.105Z,30.27
2018-12-17T05:32:42.738Z,25.33
2018-12-17T05:35:10.266Z,30.70
2018-12-17T05:37:37.774Z,28.97
2018-12-17T05:40:06.807Z,25.83
2018-12-17T05:42:34.313Z,29.97
2018-12-17T05:45:01.843Z,25.73
2018-12-17T05:47:29.351Z,28.23
2018-12-17T05:49:56.925Z,29.90
2018-12-17T05:52:24.430Z,28.93
2018-12-17T05:54:51.973Z,30.90
2018-12-17T05:57:19.533Z,30.43
2018-12-17T05:59:47.079Z,34.43
2018-12-17T06:02:14.586Z,28.53
2018-12-17T06:04:42.094Z,29.60
2018-12-17T06:07:09.819Z,29.90
2018-12-17T06:09:37.380Z,27.73
2018-12-17T06:12:04.964Z,28.23
2018-12-17T06:14:32.474Z,22.83
2018-12-17T06:17:00.103Z,23.93
2018-12-17T06:19:27.609Z,27.57
2018-12-17T06:21:55.138Z,25.97
2018-12-17T06:24:22.688Z,24.20
2018-12-17T06:26:50.338Z,23.43
2018-12-17T06:29:17.833Z,22.77
2018-12-17T06:31:45.367Z,24.27
2018-12-17T06:34:12.883Z,22.30
2018-12-17T06:36:40.417Z,21.90
2018-12-17T06:39:08.608Z,23.07
2018-12-17T06:41:36.139Z,23.27
2018-12-17T06:44:03.749Z,20.53
2018-12-17T06:46:31.301Z,23.37
2018-12-17T06:48:58.805Z,22.37
2018-12-17T06:51:26.434Z,21.83
2018-12-17T06:53:53.949Z,21.03
2018-12-17T06:56:21.485Z,23.30
2018-12-17T06:58:49.093Z,19.60
2018-12-17T07:01:16.621Z,22.47
2018-12-17T07:03:44.139Z,19.43
2018-12-17T07:06:11.675Z,21.00
2018-12-17T07:08:39.701Z,18.50
2018-12-17T07:11:07.893Z,22.53
2018-12-17T07:13:35.594Z,22.00
2018-12-17T07:16:03.171Z,21.27
2018-12-17T07:18:30.697Z,19.67
2018-12-17T07:20:58.243Z,23.50
2018-12-17T07:23:25.764Z,18.00
2018-12-17T07:25:53.278Z,20.43
2018-12-17T07:28:20.804Z,22.80
2018-12-17T07:30:48.318Z,17.50
2018-12-17T07:33:15.845Z,18.13
2018-12-17T07:35:43.466Z,16.90
2018-12-17T07:38:10.987Z,20.00
2018-12-17T07:40:38.573Z,18.80
2018-12-17T07:43:06.098Z,20.33
2018-12-17T07:45:33.611Z,18.77
2018-12-17T07:48:01.143Z,20.40
2018-12-17T07:50:28.700Z,20.20
2018-12-17T07:52:56.236Z,23.47
2018-12-17T07:55:23.752Z,24.63
2018-12-17T07:57:51.342Z,21.47
2018-12-17T08:00:18.850Z,25.27
2018-12-17T08:02:46.405Z,29.30
2018-12-17T08:05:13.918Z,28.93
2018-12-17T08:07:41.446Z,25.53
2018-12-17T08:10:09.051Z,26.90
2018-12-17T08:12:36.586Z,24.27
2018-12-17T08:15:05.197Z,21.47
2018-12-17T08:17:32.729Z,18.77
2018-12-17T08:20:00.230Z,19.60
2018-12-17T08:22:28.017Z,18.90
2018-12-17T08:24:55.529Z,17.67
2018-12-17T08:27:23.053Z,13.73
2018-12-17T08:29:50.558Z,16.80
2018-12-17T08:32:18.140Z,17.67
2018-12-17T08:34:46.030Z,18.90
2018-12-17T08:37:13.541Z,19.23
2018-12-17T08:39:41.062Z,15.17
2018-12-17T08:42:08.569Z,16.37
2018-12-17T08:44:36.093Z,16.27
2018-12-17T08:47:03.609Z,16.53
2018-12-17T08:49:31.137Z,18.07
2018-12-17T08:51:58.647Z,18.67
2018-12-17T08:54:26.172Z,18.77
2018-12-17T08:56:53.681Z,15.57
2018-12-17T08:59:21.206Z,19.20
2018-12-17T09:01:48.766Z,16.27
2018-12-17T09:04:16.307Z,18.30
2018-12-17T09:06:43.905Z,16.50
2018-12-17T09:09:11.430Z,15.47
2018-12-17T09:11:39.107Z,14.83
2018-12-17T09:14:06.650Z,14.80
2018-12-17T09:16:34.162Z,16.23
2018-12-17T09:19:01.685Z,14.57
2018-12-17T09:21:29.190Z,14.43
2018-12-17T09:23:56.779Z,14.10
2018-12-17T09:26:24.296Z,14.30
2018-12-17T09:28:51.822Z,14.13
2018-12-17T09:31:19.325Z,15.47
2018-12-17T09:33:46.858Z,16.07
2018-12-17T09:36:14.367Z,16.30
2018-12-17T09:38:41.892Z,15.83
2018-12-17T09:41:09.449Z,14.33
2018-12-17T09:43:36.972Z,14.70
2018-12-17T09:46:04.537Z,17.40
2018-12-17T09:48:32.049Z,13.30
2018-12-17T09:50:59.578Z,13.23
2018-12-17T09:53:27.084Z,14.90
2018-12-17T09:55:54.610Z,14.57
2018-12-17T09:58:22.113Z,17.20
2018-12-17T10:00:49.638Z,13.00
2018-12-17T10:03:17.143Z,17.27
2018-12-17T10:05:44.665Z,15.17
2018-12-17T10:08:12.162Z,13.13
2018-12-17T10:10:39.685Z,13.30
2018-12-17T10:13:07.200Z,12.80
2018-12-17T10:15:34.733Z,11.97
2018-12-17T10:18:02.250Z,13.87
2018-12-17T10:20:29.778Z,12.30
2018-12-17T10:22:57.286Z,13.13
2018-12-17T10:25:24.813Z,11.27
2018-12-17T10:27:52.316Z,11.90
2018-12-17T10:30:19.844Z,11.70
2018-12-17T10:32:47.414Z,13.10
2018-12-17T10:35:14.944Z,10.67
2018-12-17T10:37:42.446Z,13.27
2018-12-17T10:40:10.069Z,11.80
2018-12-17T10:42:37.629Z,11.17
2018-12-17T10:45:06.455Z,13.13
2018-12-17T10:47:33.966Z,11.67
2018-12-17T10:50:01.507Z,11.47
2018-12-17T10:52:29.009Z,11.37
2018-12-17T10:54:56.517Z,8.50
2018-12-17T10:57:24.037Z,10.77
2018-12-17T10:59:51.540Z,10.37
2018-12-17T11:02:21.052Z,15.17
2018-12-17T11:04:50.505Z,17.03
2018-12-17T11:07:18.601Z,11.00
2018-12-17T11:09:46.100Z,11.93
2018-12-17T11:12:13.684Z,12.63
2018-12-17T11:14:41.197Z,9.50
2018-12-17T11:17:08.787Z,17.83
2018-12-17T11:19:36.361Z,9.57
2018-12-17T11:22:03.890Z,10.47
2018-12-17T11:24:31.390Z,11.07
2018-12-17T11:26:58.930Z,8.90
2018-12-17T11:29:26.436Z,8.63
2018-12-17T11:31:53.954Z,10.00
2018-12-17T11:34:21.462Z,9.13
2018-12-17T11:36:48.985Z,9.17
2018-12-17T11:39:16.488Z,8.43
2018-12-17T11:41:44.010Z,9.67
2018-12-17T11:44:11.521Z,8.87
2018-12-17T11:46:39.045Z,7.47
2018-12-17T11:49:06.545Z,7.47
2018-12-17T11:51:34.121Z,7.43
2018-12-17T11:54:01.617Z,7.00
2018-12-17T11:56:41.299Z,8.03
2018-12-17T11:59:09.017Z,6.93
2018-12-17T12:01:36.553Z,8.33
2018-12-17T12:04:04.049Z,8.43
2018-12-17T12:06:31.568Z,7.20
2018-12-17T12:08:59.064Z,6.63
2018-12-17T12:11:26.616Z,6.60
2018-12-17T12:13:54.117Z,6.63
2018-12-17T12:16:21.641Z,6.30
2018-12-17T12:18:49.171Z,7.93
2018-12-17T12:21:16.722Z,6.13
2018-12-17T12:23:44.243Z,7.77
2018-12-17T12:26:11.742Z,6.57
2018-12-17T12:28:39.263Z,5.87
2018-12-17T12:31:06.826Z,6.90
2018-12-17T12:33:34.350Z,6.47
2018-12-17T12:36:01.850Z,9.07
2018-12-17T12:38:29.374Z,7.33
2018-12-17T12:40:56.931Z,6.87
2018-12-17T12:43:24.449Z,6.47
2018-12-17T12:45:51.953Z,7.83
2018-12-17T12:48:19.469Z,7.43
2018-12-17T12:50:46.968Z,6.67
2018-12-17T12:53:14.533Z,6.87
2018-12-17T12:55:42.074Z,7.70
2018-12-17T12:58:09.602Z,7.30
2018-12-17T13:00:37.119Z,6.73
2018-12-17T13:03:04.647Z,6.57
2018-12-17T13:05:32.155Z,7.13
2018-12-17T13:07:59.689Z,6.97
2018-12-17T13:10:27.198Z,7.93
2018-12-17T13:12:55.020Z,7.40
2018-12-17T13:15:22.909Z,6.70
2018-12-17T13:17:50.474Z,7.17
2018-12-17T13:20:18.061Z,8.00
2018-12-17T13:22:45.573Z,7.47
2018-12-17T13:25:15.089Z,8.30
2018-12-17T13:27:42.592Z,6.20
2018-12-17T13:30:10.311Z,7.80
2018-12-17T13:32:37.814Z,7.30
2018-12-17T13:35:05.662Z,7.97
2018-12-17T13:37:33.790Z,6.67
2018-12-17T13:40:01.452Z,7.00
2018-12-17T13:42:28.969Z,7.90
2018-12-17T13:44:56.690Z,6.13
2018-12-17T13:47:27.185Z,8.17
2018-12-17T13:49:56.756Z,6.17
2018-12-17T13:52:30.090Z,7.77
2018-12-17T13:54:57.940Z,8.27
2018-12-17T13:57:25.684Z,6.57
2018-12-17T13:59:53.332Z,5.57
2018-12-17T14:02:22.449Z,5.77
2018-12-17T14:04:50.082Z,6.50
2018-12-17T14:07:17.833Z,7.27
2018-12-17T14:09:51.259Z,6.20
2018-12-17T14:12:18.749Z,5.83
2018-12-17T14:14:46.509Z,6.40
2018-12-17T14:17:19.805Z,7.67
2018-12-17T14:19:49.350Z,6.40
2018-12-17T14:22:16.860Z,8.47
2018-12-17T14:24:44.378Z,6.50
2018-12-17T14:27:11.917Z,6.70
2018-12-17T14:29:39.442Z,6.10
2018-12-17T14:32:06.946Z,5.37
2018-12-17T14:34:34.463Z,6.57
2018-12-17T14:37:02.060Z,7.20
2018-12-17T14:39:29.629Z,7.50
2018-12-17T14:41:57.134Z,7.00
2018-12-17T14:44:30.302Z,7.07
2018-12-17T14:46:58.950Z,6.57
2018-12-17T14:49:26.506Z,6.37
2018-12-17T14:51:54.182Z,5.53
2018-12-17T14:54:21.686Z,6.10
2018-12-17T14:56:49.215Z,8.57
2018-12-17T14:59:17.562Z,7.70
2018-12-17T15:01:45.089Z,7.00
2018-12-17T15:04:12.594Z,5.53
2018-12-17T15:06:40.117Z,6.43
2018-12-17T15:09:07.636Z,5.90
2018-12-17T15:11:35.153Z,7.33
2018-12-17T15:14:02.693Z,6.87
2018-12-17T15:16:30.212Z,6.23
2018-12-17T15:18:57.767Z,6.87
2018-12-17T15:21:25.288Z,8.00
2018-12-17T15:23:52.853Z,6.10
2018-12-17T15:26:20.383Z,7.20
2018-12-17T15:28:47.905Z,7.40
2018-12-17T15:31:15.525Z,8.00
2018-12-17T15:33:43.072Z,9.77
2018-12-17T15:36:10.608Z,6.90
2018-12-17T15:38:38.098Z,8.77
2018-12-17T15:41:05.617Z,8.20
2018-12-17T15:43:33.176Z,7.97
2018-12-17T15:46:00.699Z,10.10
2018-12-17T15:48:28.194Z,8.20
2018-12-17T15:50:55.714Z,8.63
2018-12-17T15:53:23.216Z,8.50
2018-12-17T15:55:50.755Z,13.07
2018-12-17T15:58:18.256Z,13.33
2018-12-17T16:00:45.759Z,11.33
2018-12-17T16:03:13.317Z,11.00
2018-12-17T16:05:40.813Z,9.23
2018-12-17T16:08:08.329Z,10.60
2018-12-17T16:10:35.829Z,11.10
2018-12-17T16:13:03.357Z,11.40
2018-12-17T16:15:30.870Z,11.63
2018-12-17T16:17:58.393Z,11.50
2018-12-17T16:20:26.032Z,13.93
2018-12-17T16:22:53.555Z,11.50
2018-12-17T16:25:21.064Z,11.73
2018-12-17T16:27:48.595Z,13.47
2018-12-17T16:30:16.101Z,14.87
2018-12-17T16:32:43.633Z,14.93
2018-12-17T16:35:11.145Z,15.40
2018-12-17T16:37:38.678Z,16.43
2018-12-17T16:40:06.746Z,18.33
2018-12-17T16:42:34.268Z,17.80
2018-12-17T16:45:01.774Z,16.77
2018-12-17T16:47:29.305Z,16.33
2018-12-17T16:49:56.812Z,16.53
2018-12-17T16:52:24.339Z,17.57
2018-12-17T16:54:51.847Z,17.67
2018-12-17T16:57:19.426Z,15.17
2018-12-17T16:59:46.938Z,14.70
2018-12-17T17:02:14.470Z,15.00
2018-12-17T17:04:41.969Z,17.47
2018-12-17T17:07:09.545Z,18.97
2018-12-17T17:09:37.048Z,16.67
2018-12-17T17:12:04.655Z,17.80
2018-12-17T17:14:32.173Z,16.70
2018-12-17T17:16:59.694Z,17.90
2018-12-17T17:19:27.217Z,16.60
2018-12-17T17:21:54.716Z,17.63
2018-12-17T17:24:22.239Z,17.50
2018-12-17T17:26:49.740Z,18.30
2018-12-17T17:29:17.263Z,18.27
2018-12-17T17:31:44.768Z,17.57
2018-12-17T17:34:12.290Z,19.93
2018-12-17T17:36:40.736Z,20.07
2018-12-17T17:39:08.572Z,22.43
2018-12-17T17:41:36.077Z,21.07
2018-12-17T17:44:03.696Z,19.77
2018-12-17T17:46:31.197Z,21.77
2018-12-17T17:48:58.721Z,21.77
2018-12-17T17:51:26.281Z,20.53
2018-12-17T17:53:53.853Z,22.50
2018-12-17T17:56:21.358Z,22.23
2018-12-17T17:58:48.938Z,19.17
2018-12-17T18:01:16.456Z,21.20
2018-12-17T18:03:43.981Z,21.20
2018-12-17T18:06:16.199Z,21.73
2018-12-17T18:08:41.037Z,23.30
2018-12-17T18:11:08.539Z,23.27
2018-12-17T18:13:36.060Z,20.90
2018-12-17T18:16:03.566Z,21.90
2018-12-17T18:18:31.142Z,25.43
2018-12-17T18:20:58.653Z,21.60
2018-12-17T18:23:26.190Z,22.00
2018-12-17T18:25:53.707Z,20.70
2018-12-17T18:28:21.211Z,21.57
2018-12-17T18:30:48.745Z,24.73
2018-12-17T18:33:16.251Z,22.90
2018-12-17T18:35:43.785Z,21.50
2018-12-17T18:38:11.302Z,23.27
2018-12-17T18:40:38.821Z,23.77
2018-12-17T18:43:06.316Z,23.23
2018-12-17T18:45:33.848Z,88.57
2018-12-17T18:48:01.361Z,26.37
2018-12-17T18:50:29.014Z,25.97
2018-12-17T18:52:56.516Z,27.23
2018-12-17T18:55:24.037Z,23.57
2018-12-17T18:57:51.553Z,23.50
2018-12-17T19:00:19.133Z,24.63
2018-12-17T19:02:46.646Z,26.30
2018-12-17T19:05:14.839Z,21.10
2018-12-17T19:07:42.905Z,22.37
2018-12-17T19:10:10.569Z,22.80
2018-12-17T19:12:38.077Z,22.10
2018-12-17T19:15:06.073Z,22.17
2018-12-17T19:17:33.581Z,21.03
2018-12-17T19:20:01.101Z,22.57
2018-12-17T19:22:28.610Z,21.20
2018-12-17T19:24:56.157Z,21.93
2018-12-17T19:27:23.663Z,23.00
2018-12-17T19:29:51.193Z,22.37
2018-12-17T19:32:18.696Z,20.33
2018-12-17T19:34:46.207Z,23.37
2018-12-17T19:37:13.729Z,22.77
2018-12-17T19:39:41.241Z,22.20
2018-12-17T19:42:09.115Z,20.63
2018-12-17T19:44:36.710Z,21.17
2018-12-17T19:47:04.289Z,22.43
2018-12-17T19:49:31.798Z,25.10
2018-12-17T19:51:59.338Z,22.03
2018-12-17T19:54:27.001Z,21.40
2018-12-17T19:56:54.529Z,23.30
2018-12-17T19:59:22.041Z,21.70
2018-12-17T20:01:49.578Z,22.73
2018-12-17T20:04:17.131Z,23.73
2018-12-17T20:06:44.671Z,23.53
2018-12-17T20:09:12.535Z,22.77
2018-12-17T20:11:40.057Z,22.43
2018-12-17T20:14:07.573Z,25.37
2018-12-17T20:16:35.093Z,24.37
2018-12-17T20:19:02.597Z,25.27
2018-12-17T20:21:30.129Z,25.73
2018-12-17T20:23:57.641Z,23.27
2018-12-17T20:26:25.243Z,24.17
2018-12-17T20:28:52.741Z,23.43
2018-12-17T20:31:20.270Z,25.97
2018-12-17T20:33:47.829Z,24.00
2018-12-17T20:36:15.358Z,26.13
2018-12-17T20:38:42.876Z,27.67
2018-12-17T20:41:10.401Z,27.07
2018-12-17T20:43:37.914Z,29.00
2018-12-17T20:46:06.004Z,25.97
2018-12-17T20:48:33.628Z,25.23
2018-12-17T20:51:02.133Z,29.93
2018-12-17T20:53:29.820Z,26.37
2018-12-17T20:55:57.668Z,28.93
2018-12-17T20:58:25.458Z,29.40
2018-12-17T21:00:53.193Z,27.13
2018-12-17T21:03:20.955Z,25.70
2018-12-17T21:05:48.675Z,25.93
2018-12-17T21:08:16.449Z,26.60
2018-12-17T21:10:44.376Z,26.47
2018-12-17T21:13:12.901Z,25.53
2018-12-17T21:15:41.823Z,28.33
2018-12-17T21:18:09.736Z,28.47
2018-12-17T21:20:38.017Z,28.30
2018-12-17T21:23:05.895Z,25.73
2018-12-17T21:25:34.017Z,25.53
2018-12-17T21:28:02.440Z,24.87
2018-12-17T21:30:30.900Z,25.53
2018-12-17T21:32:58.420Z,27.20
2018-12-17T21:35:25.924Z,26.63
2018-12-17T21:37:53.445Z,26.27
2018-12-17T21:40:20.952Z,25.90
2018-12-17T21:42:48.528Z,29.20
2018-12-17T21:45:16.033Z,27.17
2018-12-17T21:47:43.570Z,29.83
2018-12-17T21:50:11.129Z,29.43
2018-12-17T21:52:38.650Z,32.07
2018-12-17T21:55:06.619Z,30.90
2018-12-17T21:57:34.696Z,28.80
2018-12-17T22:00:02.279Z,35.87
2018-12-17T22:02:29.814Z,31.70
2018-12-17T22:04:57.325Z,28.37
2018-12-17T22:07:24.861Z,29.50
2018-12-17T22:09:52.369Z,31.07
2018-12-17T22:12:19.950Z,28.53
2018-12-17T22:14:47.457Z,32.30
2018-12-17T22:17:15.225Z,30.60
2018-12-17T22:19:42.781Z,30.40
2018-12-17T22:22:10.375Z,29.63
2018-12-17T22:24:37.881Z,30.67
2018-12-17T22:27:05.393Z,31.90
2018-12-17T22:29:32.918Z,28.87
2018-12-17T22:32:00.427Z,27.83
2018-12-17T22:34:27.959Z,30.53
2018-12-17T22:36:55.522Z,29.13
2018-12-17T22:39:23.048Z,29.47
2018-12-17T22:41:50.558Z,30.33
2018-12-17T22:44:18.110Z,28.43
2018-12-17T22:46:45.617Z,29.60
2018-12-17T22:49:13.146Z,27.30
2018-12-17T22:51:40.648Z,26.73
2018-12-17T22:54:08.172Z,30.57
2018-12-17T22:56:35.678Z,28.87
2018-12-17T22:59:03.221Z,29.97
2018-12-17T23:01:30.731Z,31.70
2018-12-17T23:03:58.361Z,27.47
2018-12-17T23:06:25.921Z,29.33
2018-12-17T23:09:02.060Z,30.80
2018-12-17T23:14:52.318Z,31.33
2018-12-17T23:17:31.597Z,28.17
2018-12-17T23:19:59.130Z,31.57
2018-12-17T23:22:26.647Z,31.17
2018-12-17T23:24:54.327Z,31.13
2018-12-17T23:27:21.897Z,30.80
2018-12-17T23:29:49.430Z,28.63
2018-12-17T23:32:17.057Z,29.67
2018-12-17T23:34:44.588Z,30.10
2018-12-17T23:37:12.108Z,30.70
2018-12-17T23:39:39.635Z,29.90
2018-12-17T23:42:07.147Z,32.53
2018-12-17T23:44:36.436Z,32.53
2018-12-17T23:47:03.993Z,34.30
2018-12-17T23:49:31.587Z,34.80
2018-12-17T23:51:59.107Z,33.27
2018-12-17T23:54:26.616Z,37.20
2018-12-17T23:56:54.145Z,33.73
2018-12-17T23:59:21.657Z,35.63
